Colt — WDC6330 — position and weather

sailwx.info

Track history (hours):
 
Tides and Currents Weather Stations Pressure Air Temp Water Temp Dewpoint Dewpoint Depression Visibility Wind Speed Wind Dir Waves Ship Positions

Colt

Owner: ACL Transportation Services LLC, Jeffersonville, IN. More information available from US FCC via Universal Licensing System and Coast Guard Vessel Documentation Center.

Last reported at 2017-Dec-18 05:00 UTC. Time now 2017-Dec-18 05:12 UTC.
Position N 29°40' W 094°59'.

Length 20 m; draft 2.9 m.

Type: Towing. MMSI: 367054790.

Date/timePositionNaut miles runAvg speedWind from/ knotsBaromVisibWave heightAir tempDewpointWater temp
2017-Dec-18 05:00N 29°40' W 094°59'2 4.2
2017-Dec-18 04:30N 29°42' W 094°60'4 3.6
2017-Dec-18 03:23N 29°44' W 095°03'2 4.1
2017-Dec-18 03:00N 29°46' W 095°04'1 1.3
2017-Dec-18 02:09N 29°46' W 095°05'1 0.0
2017-Dec-17 01:07N 29°46' W 095°06'2 1.7
2017-Dec-16 23:40N 29°44' W 095°08'1 3.6
2017-Dec-16 23:19N 29°44' W 095°10'1 3.6
2017-Dec-16 22:56N 29°45' W 095°11'2 3.7
2017-Dec-16 22:23N 29°43' W 095°13'1 2.0
2017-Dec-16 22:00N 29°44' W 095°14'0 0.0
2017-Dec-16 21:23N 29°44' W 095°14'0 0.0
2017-Dec-16 21:01N 29°44' W 095°14'0 0.0
2017-Dec-16 20:06N 29°44' W 095°14'0 0.0
2017-Dec-16 19:51N 29°44' W 095°14'0 0.0
2017-Dec-16 19:31N 29°44' W 095°14'0 0.0
2017-Dec-16 19:00N 29°44' W 095°14'0 0.0
2017-Dec-16 18:21N 29°44' W 095°14'2 3.1
2017-Dec-16 17:45N 29°44' W 095°12'2 6.0
2017-Dec-16 17:25N 29°45' W 095°10'3 5.8
2017-Dec-16 16:56N 29°45' W 095°07'2 1.1
2017-Dec-16 15:35N 29°44' W 095°08'1 7.1
2017-Dec-16 15:27N 29°44' W 095°09'4 6.1
2017-Dec-16 14:49N 29°44' W 095°14'1 2.1
2017-Dec-16 14:18N 29°44' W 095°15'0 0.1
2017-Dec-16 14:00N 29°44' W 095°15'0 0.0
2017-Dec-16 13:30N 29°44' W 095°15'0 0.0
2017-Dec-16 13:00N 29°44' W 095°15'1 1.8
2017-Dec-16 12:29N 29°43' W 095°14'3 5.4
2017-Dec-16 12:00N 29°45' W 095°11'3 5.4
2017-Dec-16 11:30N 29°44' W 095°08'3 5.6
2017-Dec-16 11:00N 29°46' W 095°05'1 0.5
2017-Dec-16 09:29N 29°46' W 095°06'1 1.9
2017-Dec-16 08:59N 29°46' W 095°07'0 0.2
2017-Dec-16 08:30N 29°46' W 095°07'0 0.0
2017-Dec-16 08:00N 29°46' W 095°07'0 0.0
2017-Dec-16 07:23N 29°46' W 095°07'0 0.1
2017-Dec-16 06:58N 29°46' W 095°07'1 2.6
2017-Dec-16 06:29N 29°44' W 095°07'3 6.1
2017-Dec-16 06:00N 29°45' W 095°10'0 0.0
2017-Dec-16 05:29N 29°45' W 095°10'3 5.3
2017-Dec-16 04:56N 29°44' W 095°07'1 0.9
2017-Dec-16 04:15N 29°45' W 095°06'1 3.2
2017-Dec-16 04:00N 29°45' W 095°06'1 1.6
2017-Dec-16 03:22N 29°46' W 095°07'1 2.5
2017-Dec-16 02:52N 29°45' W 095°06'1 1.6
2017-Dec-16 02:30N 29°46' W 095°06'1 0.1
2017-Dec-15 20:35N 29°46' W 095°06'1 2.2
2017-Dec-15 20:16N 29°46' W 095°05'0 0.0
2017-Dec-15 00:31N 29°46' W 095°06'3 0.3
2017-Dec-14 16:22N 29°44' W 095°08'2 4.5
2017-Dec-14 15:53N 29°45' W 095°10'2 2.5
2017-Dec-14 14:58N 29°44' W 095°08'3 1.5
2017-Dec-14 12:58N 29°46' W 095°05'0 0.0
2017-Dec-14 12:27N 29°46' W 095°05'0 0.0
2017-Dec-14 11:57N 29°46' W 095°05'0 0.0
2017-Dec-14 11:24N 29°46' W 095°05'0 0.0
2017-Dec-14 10:47N 29°46' W 095°05'0 0.0
2017-Dec-14 10:30N 29°46' W 095°05'0 0.0
2017-Dec-14 10:00N 29°46' W 095°05'0 0.0
2017-Dec-14 09:26N 29°46' W 095°05'0 0.0
2017-Dec-14 09:00N 29°46' W 095°05'0 0.0
2017-Dec-14 08:22N 29°46' W 095°05'0 0.0
2017-Dec-14 07:59N 29°46' W 095°05'0 0.4
2017-Dec-14 07:30N 29°46' W 095°05'1 0.9
2017-Dec-14 06:11N 29°46' W 095°07'0 0.0
2017-Dec-14 05:59N 29°46' W 095°07'1 1.8
2017-Dec-14 05:28N 29°45' W 095°06'2 3.4
2017-Dec-14 04:57N 29°47' W 095°05'0 0.1
2017-Dec-14 04:14N 29°47' W 095°04'1 5.8
2017-Dec-14 04:00N 29°46' W 095°05'2 3.1
2017-Dec-14 03:30N 29°46' W 095°07'1 1.6
2017-Dec-14 02:55N 29°45' W 095°06'0 0.0
2017-Dec-13 13:32N 29°45' W 095°06'0 4.5
2017-Dec-13 13:28N 29°46' W 095°05'0 0.4
2017-Dec-13 12:44N 29°46' W 095°05'1 1.8
2017-Dec-13 12:19N 29°46' W 095°06'0 0.0
2017-Dec-13 10:24N 29°46' W 095°06'0 0.2
2017-Dec-13 09:55N 29°46' W 095°06'1 1.1
2017-Dec-13 09:24N 29°46' W 095°07'1 1.2
2017-Dec-13 08:50N 29°46' W 095°06'0 0.8
2017-Dec-13 08:30N 29°45' W 095°06'3 4.0
2017-Dec-13 07:53N 29°44' W 095°08'2 5.2
2017-Dec-13 07:28N 29°45' W 095°11'3 0.8
2017-Dec-13 03:46N 29°44' W 095°13'3 6.1
2017-Dec-13 03:14N 29°45' W 095°10'2 6.7
2017-Dec-13 03:00N 29°44' W 095°08'3 0.5
2017-Dec-12 20:11N 29°46' W 095°05'1 5.0
2017-Dec-12 19:54N 29°45' W 095°04'2 4.8
2017-Dec-12 19:29N 29°44' W 095°02'3 0.2
2017-Dec-12 01:17N 29°46' W 095°05'0 0.9
2017-Dec-12 01:00N 29°46' W 095°05'4 2.1
2017-Dec-11 23:01N 29°45' W 095°10'0 4.1
2017-Dec-11 23:00N 29°45' W 095°10'1 3.0
2017-Dec-11 22:30N 29°44' W 095°09'3 5.6
2017-Dec-11 21:58N 29°45' W 095°06'4 1.1
2017-Dec-11 18:24N 29°45' W 095°10'2 5.5
2017-Dec-11 17:59N 29°44' W 095°08'3 0.9
2017-Dec-11 15:01N 29°46' W 095°05'1 1.0
2017-Dec-11 14:16N 29°46' W 095°06'0 0.0
2017-Dec-11 13:53N 29°46' W 095°06'0 0.0
2017-Dec-11 13:31N 29°46' W 095°06'0 0.0
2017-Dec-11 13:00N 29°46' W 095°06'0 0.0
2017-Dec-11 12:31N 29°46' W 095°06'0 0.0
2017-Dec-11 12:01N 29°46' W 095°06'0 0.0
2017-Dec-11 11:28N 29°46' W 095°06'0 0.0
2017-Dec-11 10:58N 29°46' W 095°06'0 0.0
2017-Dec-11 10:30N 29°46' W 095°06'0 0.0
2017-Dec-11 09:05N 29°46' W 095°06'0 0.0
2017-Dec-11 08:09N 29°46' W 095°06'0 0.0
2017-Dec-11 07:05N 29°46' W 095°06'0 0.0
2017-Dec-11 06:52N 29°46' W 095°06'0 0.0
2017-Dec-11 06:29N 29°46' W 095°06'0 0.0
2017-Dec-11 06:00N 29°46' W 095°06'0 0.0
2017-Dec-11 05:30N 29°46' W 095°06'0 0.0
2017-Dec-11 04:57N 29°46' W 095°06'0 0.0
2017-Dec-11 04:25N 29°46' W 095°06'0 0.0
2017-Dec-11 01:08N 29°46' W 095°06'0 0.3
2017-Dec-11 00:58N 29°46' W 095°06'3 5.8
2017-Dec-11 00:30N 29°44' W 095°09'3 6.9
2017-Dec-11 00:00N 29°44' W 095°13'1 1.6
2017-Dec-10 23:30N 29°44' W 095°14'3 5.7
2017-Dec-10 22:56N 29°45' W 095°10'3 5.8
2017-Dec-10 22:25N 29°44' W 095°07'2 1.0
2017-Dec-10 20:35N 29°46' W 095°05'0 0.0
2017-Dec-10 20:22N 29°46' W 095°05'0 0.0
2017-Dec-10 19:45N 29°46' W 095°05'0 0.0
2017-Dec-10 19:14N 29°46' W 095°05'0 0.0
2017-Dec-10 18:53N 29°46' W 095°05'0 0.0
2017-Dec-10 18:27N 29°46' W 095°05'0 0.0
2017-Dec-10 16:40N 29°46' W 095°05'0 0.0
2017-Dec-10 16:25N 29°46' W 095°05'0 0.6
2017-Dec-10 15:57N 29°46' W 095°05'1 1.5
2017-Dec-10 15:29N 29°46' W 095°06'0 0.1
2017-Dec-10 15:00N 29°46' W 095°06'0 0.0
2017-Dec-10 14:30N 29°46' W 095°06'0 0.0
2017-Dec-10 14:00N 29°46' W 095°06'0 0.0
2017-Dec-10 13:30N 29°46' W 095°06'0 0.0
2017-Dec-10 13:00N 29°46' W 095°06'0 0.0
2017-Dec-10 12:28N 29°46' W 095°06'0 0.0
2017-Dec-10 12:00N 29°46' W 095°06'2 3.6
2017-Dec-10 11:28N 29°44' W 095°07'3 7.2
2017-Dec-10 11:00N 29°45' W 095°11'2 4.5
2017-Dec-10 10:30N 29°44' W 095°14'1 1.0
2017-Dec-10 10:01N 29°44' W 095°13'3 5.6
2017-Dec-10 09:30N 29°45' W 095°10'3 5.5
2017-Dec-10 09:00N 29°44' W 095°07'1 2.8
2017-Dec-10 08:30N 29°46' W 095°06'0 0.6
2017-Dec-10 08:00N 29°45' W 095°06'0 0.6
2017-Dec-10 07:13N 29°46' W 095°06'0 0.1
2017-Dec-10 06:59N 29°46' W 095°06'0 0.6
2017-Dec-10 06:30N 29°46' W 095°06'0 0.0
2017-Dec-10 06:00N 29°46' W 095°06'0 0.0
2017-Dec-10 05:31N 29°46' W 095°06'0 0.3
2017-Dec-10 04:59N 29°46' W 095°06'1 1.2
2017-Dec-10 04:28N 29°46' W 095°05'0 0.6
2017-Dec-10 04:00N 29°46' W 095°05'0 0.0
2017-Dec-10 03:29N 29°46' W 095°05'0 0.0
2017-Dec-10 03:00N 29°46' W 095°05'1 1.5
2017-Dec-10 02:30N 29°46' W 095°06'0 0.0
2017-Dec-10 00:19N 29°46' W 095°06'0 0.4
2017-Dec-09 23:59N 29°46' W 095°06'1 0.1
2017-Dec-09 19:48N 29°46' W 095°05'0 1.2
2017-Dec-09 19:30N 29°46' W 095°05'1 0.5
2017-Dec-09 18:04N 29°46' W 095°06'0 0.0
2017-Dec-09 17:59N 29°46' W 095°06'0 0.1
2017-Dec-09 16:25N 29°46' W 095°06'1 2.1
2017-Dec-09 16:00N 29°46' W 095°05'1 1.3
2017-Dec-09 15:24N 29°46' W 095°06'0 0.1
2017-Dec-09 14:59N 29°46' W 095°06'0 0.0
2017-Dec-09 14:29N 29°46' W 095°06'0 0.0
2017-Dec-09 14:00N 29°46' W 095°06'0 0.0
2017-Dec-09 13:30N 29°46' W 095°06'0 0.6
2017-Dec-09 12:59N 29°46' W 095°07'1 0.9
2017-Dec-09 12:24N 29°46' W 095°07'0 0.0
2017-Dec-09 12:00N 29°46' W 095°07'0 0.0
2017-Dec-09 11:30N 29°46' W 095°07'0 0.0
2017-Dec-09 10:58N 29°46' W 095°07'0 0.0
2017-Dec-09 10:31N 29°46' W 095°07'0 0.0
2017-Dec-09 10:00N 29°46' W 095°07'0 0.0
2017-Dec-09 09:27N 29°46' W 095°07'0 0.0
2017-Dec-09 08:59N 29°46' W 095°07'0 0.0
2017-Dec-09 08:28N 29°46' W 095°07'0 0.0
2017-Dec-09 08:00N 29°46' W 095°07'0 0.0
2017-Dec-09 07:30N 29°46' W 095°07'0 0.0
2017-Dec-09 07:00N 29°46' W 095°07'0 0.0
2017-Dec-09 06:31N 29°46' W 095°07'0 0.0
2017-Dec-09 05:52N 29°46' W 095°07'0 0.0
2017-Dec-09 05:30N 29°46' W 095°07'0 0.0
2017-Dec-09 04:54N 29°46' W 095°07'1 0.1
2017-Dec-08 19:36N 29°45' W 095°06'1 1.9
2017-Dec-08 19:18N 29°46' W 095°05'1 4.7
2017-Dec-08 18:59N 29°45' W 095°04'3 5.1
2017-Dec-08 18:29N 29°44' W 095°02'2 4.0
2017-Dec-08 18:00N 29°42' W 095°00'2 4.8
2017-Dec-08 17:30N 29°40' W 094°59'3 5.4
2017-Dec-08 17:00N 29°38' W 094°58'2 4.1
2017-Dec-08 16:30N 29°37' W 094°60'2 3.1
2017-Dec-08 16:00N 29°37' W 095°01'0 0.0
2017-Dec-08 15:30N 29°37' W 095°01'0 0.0
2017-Dec-08 15:00N 29°37' W 095°01'0 0.4
2017-Dec-08 14:30N 29°37' W 095°01'0 0.0
2017-Dec-08 14:00N 29°37' W 095°01'0 0.0
2017-Dec-08 13:30N 29°37' W 095°01'0 0.0
2017-Dec-08 13:00N 29°37' W 095°01'0 0.0
2017-Dec-08 12:30N 29°37' W 095°01'0 0.0
2017-Dec-08 12:00N 29°37' W 095°01'0 0.0
2017-Dec-08 11:30N 29°37' W 095°01'0 0.0
2017-Dec-08 11:00N 29°37' W 095°01'0 0.0
2017-Dec-08 10:30N 29°37' W 095°01'0 0.0
2017-Dec-08 10:00N 29°37' W 095°01'0 0.0
2017-Dec-08 09:30N 29°37' W 095°01'0 0.0
2017-Dec-08 09:00N 29°37' W 095°01'0 0.0
2017-Dec-08 08:30N 29°37' W 095°01'0 0.0
2017-Dec-08 08:00N 29°37' W 095°01'0 0.0
2017-Dec-08 07:30N 29°37' W 095°01'0 0.0
2017-Dec-08 07:00N 29°37' W 095°01'0 0.0
2017-Dec-08 06:30N 29°37' W 095°01'0 0.0
2017-Dec-08 06:00N 29°37' W 095°01'0 0.0
2017-Dec-08 05:30N 29°37' W 095°01'0 0.0
2017-Dec-08 05:00N 29°37' W 095°01'  
Track history (hours):
 
Tides and Currents Weather Stations Pressure Air Temp Water Temp Dewpoint Dewpoint Depression Visibility Wind Speed Wind Dir Waves Ship Positions

Colt

Owner: ACL Transportation Services LLC, Jeffersonville, IN. More information available from US FCC via Universal Licensing System and Coast Guard Vessel Documentation Center.

Last reported at 2017-Dec-18 05:00 UTC. Time now 2017-Dec-18 05:12 UTC.
Position N 29°40' W 094°59'.

Length 20 m; draft 2.9 m.

Type: Towing. MMSI: 367054790.

Date/timePositionNaut miles runAvg speedWind from/ knotsBaromVisibWave heightAir tempDewpointWater temp
2017-Dec-18 05:00N 29°40' W 094°59'2 4.2
2017-Dec-18 04:30N 29°42' W 094°60'4 3.6
2017-Dec-18 03:23N 29°44' W 095°03'2 4.1
2017-Dec-18 03:00N 29°46' W 095°04'1 1.3
2017-Dec-18 02:09N 29°46' W 095°05'1 0.0
2017-Dec-17 01:07N 29°46' W 095°06'2 1.7
2017-Dec-16 23:40N 29°44' W 095°08'1 3.6
2017-Dec-16 23:19N 29°44' W 095°10'1 3.6
2017-Dec-16 22:56N 29°45' W 095°11'2 3.7
2017-Dec-16 22:23N 29°43' W 095°13'1 2.0
2017-Dec-16 22:00N 29°44' W 095°14'0 0.0
2017-Dec-16 21:23N 29°44' W 095°14'0 0.0
2017-Dec-16 21:01N 29°44' W 095°14'0 0.0
2017-Dec-16 20:06N 29°44' W 095°14'0 0.0
2017-Dec-16 19:51N 29°44' W 095°14'0 0.0
2017-Dec-16 19:31N 29°44' W 095°14'0 0.0
2017-Dec-16 19:00N 29°44' W 095°14'0 0.0
2017-Dec-16 18:21N 29°44' W 095°14'2 3.1
2017-Dec-16 17:45N 29°44' W 095°12'2 6.0
2017-Dec-16 17:25N 29°45' W 095°10'3 5.8
2017-Dec-16 16:56N 29°45' W 095°07'2 1.1
2017-Dec-16 15:35N 29°44' W 095°08'1 7.1
2017-Dec-16 15:27N 29°44' W 095°09'4 6.1
2017-Dec-16 14:49N 29°44' W 095°14'1 2.1
2017-Dec-16 14:18N 29°44' W 095°15'0 0.1
2017-Dec-16 14:00N 29°44' W 095°15'0 0.0
2017-Dec-16 13:30N 29°44' W 095°15'0 0.0
2017-Dec-16 13:00N 29°44' W 095°15'1 1.8
2017-Dec-16 12:29N 29°43' W 095°14'3 5.4
2017-Dec-16 12:00N 29°45' W 095°11'3 5.4
2017-Dec-16 11:30N 29°44' W 095°08'3 5.6
2017-Dec-16 11:00N 29°46' W 095°05'1 0.5
2017-Dec-16 09:29N 29°46' W 095°06'1 1.9
2017-Dec-16 08:59N 29°46' W 095°07'0 0.2
2017-Dec-16 08:30N 29°46' W 095°07'0 0.0
2017-Dec-16 08:00N 29°46' W 095°07'0 0.0
2017-Dec-16 07:23N 29°46' W 095°07'0 0.1
2017-Dec-16 06:58N 29°46' W 095°07'1 2.6
2017-Dec-16 06:29N 29°44' W 095°07'3 6.1
2017-Dec-16 06:00N 29°45' W 095°10'0 0.0
2017-Dec-16 05:29N 29°45' W 095°10'3 5.3
2017-Dec-16 04:56N 29°44' W 095°07'1 0.9
2017-Dec-16 04:15N 29°45' W 095°06'1 3.2
2017-Dec-16 04:00N 29°45' W 095°06'1 1.6
2017-Dec-16 03:22N 29°46' W 095°07'1 2.5
2017-Dec-16 02:52N 29°45' W 095°06'1 1.6
2017-Dec-16 02:30N 29°46' W 095°06'1 0.1
2017-Dec-15 20:35N 29°46' W 095°06'1 2.2
2017-Dec-15 20:16N 29°46' W 095°05'0 0.0
2017-Dec-15 00:31N 29°46' W 095°06'3 0.3
2017-Dec-14 16:22N 29°44' W 095°08'2 4.5
2017-Dec-14 15:53N 29°45' W 095°10'2 2.5
2017-Dec-14 14:58N 29°44' W 095°08'3 1.5
2017-Dec-14 12:58N 29°46' W 095°05'0 0.0
2017-Dec-14 12:27N 29°46' W 095°05'0 0.0
2017-Dec-14 11:57N 29°46' W 095°05'0 0.0
2017-Dec-14 11:24N 29°46' W 095°05'0 0.0
2017-Dec-14 10:47N 29°46' W 095°05'0 0.0
2017-Dec-14 10:30N 29°46' W 095°05'0 0.0
2017-Dec-14 10:00N 29°46' W 095°05'0 0.0
2017-Dec-14 09:26N 29°46' W 095°05'0 0.0
2017-Dec-14 09:00N 29°46' W 095°05'0 0.0
2017-Dec-14 08:22N 29°46' W 095°05'0 0.0
2017-Dec-14 07:59N 29°46' W 095°05'0 0.4
2017-Dec-14 07:30N 29°46' W 095°05'1 0.9
2017-Dec-14 06:11N 29°46' W 095°07'0 0.0
2017-Dec-14 05:59N 29°46' W 095°07'1 1.8
2017-Dec-14 05:28N 29°45' W 095°06'2 3.4
2017-Dec-14 04:57N 29°47' W 095°05'0 0.1
2017-Dec-14 04:14N 29°47' W 095°04'1 5.8
2017-Dec-14 04:00N 29°46' W 095°05'2 3.1
2017-Dec-14 03:30N 29°46' W 095°07'1 1.6
2017-Dec-14 02:55N 29°45' W 095°06'0 0.0
2017-Dec-13 13:32N 29°45' W 095°06'0 4.5
2017-Dec-13 13:28N 29°46' W 095°05'0 0.4
2017-Dec-13 12:44N 29°46' W 095°05'1 1.8
2017-Dec-13 12:19N 29°46' W 095°06'0 0.0
2017-Dec-13 10:24N 29°46' W 095°06'0 0.2
2017-Dec-13 09:55N 29°46' W 095°06'1 1.1
2017-Dec-13 09:24N 29°46' W 095°07'1 1.2
2017-Dec-13 08:50N 29°46' W 095°06'0 0.8
2017-Dec-13 08:30N 29°45' W 095°06'3 4.0
2017-Dec-13 07:53N 29°44' W 095°08'2 5.2
2017-Dec-13 07:28N 29°45' W 095°11'3 0.8
2017-Dec-13 03:46N 29°44' W 095°13'3 6.1
2017-Dec-13 03:14N 29°45' W 095°10'2 6.7
2017-Dec-13 03:00N 29°44' W 095°08'3 0.5
2017-Dec-12 20:11N 29°46' W 095°05'1 5.0
2017-Dec-12 19:54N 29°45' W 095°04'2 4.8
2017-Dec-12 19:29N 29°44' W 095°02'3 0.2
2017-Dec-12 01:17N 29°46' W 095°05'0 0.9
2017-Dec-12 01:00N 29°46' W 095°05'4 2.1
2017-Dec-11 23:01N 29°45' W 095°10'0 4.1
2017-Dec-11 23:00N 29°45' W 095°10'1 3.0
2017-Dec-11 22:30N 29°44' W 095°09'3 5.6
2017-Dec-11 21:58N 29°45' W 095°06'4 1.1
2017-Dec-11 18:24N 29°45' W 095°10'2 5.5
2017-Dec-11 17:59N 29°44' W 095°08'3 0.9
2017-Dec-11 15:01N 29°46' W 095°05'1 1.0
2017-Dec-11 14:16N 29°46' W 095°06'0 0.0
2017-Dec-11 13:53N 29°46' W 095°06'0 0.0
2017-Dec-11 13:31N 29°46' W 095°06'0 0.0
2017-Dec-11 13:00N 29°46' W 095°06'0 0.0
2017-Dec-11 12:31N 29°46' W 095°06'0 0.0
2017-Dec-11 12:01N 29°46' W 095°06'0 0.0
2017-Dec-11 11:28N 29°46' W 095°06'0 0.0
2017-Dec-11 10:58N 29°46' W 095°06'0 0.0
2017-Dec-11 10:30N 29°46' W 095°06'0 0.0
2017-Dec-11 09:05N 29°46' W 095°06'0 0.0
2017-Dec-11 08:09N 29°46' W 095°06'0 0.0
2017-Dec-11 07:05N 29°46' W 095°06'0 0.0
2017-Dec-11 06:52N 29°46' W 095°06'0 0.0
2017-Dec-11 06:29N 29°46' W 095°06'0 0.0
2017-Dec-11 06:00N 29°46' W 095°06'0 0.0
2017-Dec-11 05:30N 29°46' W 095°06'0 0.0
2017-Dec-11 04:57N 29°46' W 095°06'0 0.0
2017-Dec-11 04:25N 29°46' W 095°06'0 0.0
2017-Dec-11 01:08N 29°46' W 095°06'0 0.3
2017-Dec-11 00:58N 29°46' W 095°06'3 5.8
2017-Dec-11 00:30N 29°44' W 095°09'3 6.9
2017-Dec-11 00:00N 29°44' W 095°13'1 1.6
2017-Dec-10 23:30N 29°44' W 095°14'3 5.7
2017-Dec-10 22:56N 29°45' W 095°10'3 5.8
2017-Dec-10 22:25N 29°44' W 095°07'2 1.0
2017-Dec-10 20:35N 29°46' W 095°05'0 0.0
2017-Dec-10 20:22N 29°46' W 095°05'0 0.0
2017-Dec-10 19:45N 29°46' W 095°05'0 0.0
2017-Dec-10 19:14N 29°46' W 095°05'0 0.0
2017-Dec-10 18:53N 29°46' W 095°05'0 0.0
2017-Dec-10 18:27N 29°46' W 095°05'0 0.0
2017-Dec-10 16:40N 29°46' W 095°05'0 0.0
2017-Dec-10 16:25N 29°46' W 095°05'0 0.6
2017-Dec-10 15:57N 29°46' W 095°05'1 1.5
2017-Dec-10 15:29N 29°46' W 095°06'0 0.1
2017-Dec-10 15:00N 29°46' W 095°06'0 0.0
2017-Dec-10 14:30N 29°46' W 095°06'0 0.0
2017-Dec-10 14:00N 29°46' W 095°06'0 0.0
2017-Dec-10 13:30N 29°46' W 095°06'0 0.0
2017-Dec-10 13:00N 29°46' W 095°06'0 0.0
2017-Dec-10 12:28N 29°46' W 095°06'0 0.0
2017-Dec-10 12:00N 29°46' W 095°06'2 3.6
2017-Dec-10 11:28N 29°44' W 095°07'3 7.2
2017-Dec-10 11:00N 29°45' W 095°11'2 4.5
2017-Dec-10 10:30N 29°44' W 095°14'1 1.0
2017-Dec-10 10:01N 29°44' W 095°13'3 5.6
2017-Dec-10 09:30N 29°45' W 095°10'3 5.5
2017-Dec-10 09:00N 29°44' W 095°07'1 2.8
2017-Dec-10 08:30N 29°46' W 095°06'0 0.6
2017-Dec-10 08:00N 29°45' W 095°06'0 0.6
2017-Dec-10 07:13N 29°46' W 095°06'0 0.1
2017-Dec-10 06:59N 29°46' W 095°06'0 0.6
2017-Dec-10 06:30N 29°46' W 095°06'0 0.0
2017-Dec-10 06:00N 29°46' W 095°06'0 0.0
2017-Dec-10 05:31N 29°46' W 095°06'0 0.3
2017-Dec-10 04:59N 29°46' W 095°06'1 1.2
2017-Dec-10 04:28N 29°46' W 095°05'0 0.6
2017-Dec-10 04:00N 29°46' W 095°05'0 0.0
2017-Dec-10 03:29N 29°46' W 095°05'0 0.0
2017-Dec-10 03:00N 29°46' W 095°05'1 1.5
2017-Dec-10 02:30N 29°46' W 095°06'0 0.0
2017-Dec-10 00:19N 29°46' W 095°06'0 0.4
2017-Dec-09 23:59N 29°46' W 095°06'1 0.1
2017-Dec-09 19:48N 29°46' W 095°05'0 1.2
2017-Dec-09 19:30N 29°46' W 095°05'1 0.5
2017-Dec-09 18:04N 29°46' W 095°06'0 0.0
2017-Dec-09 17:59N 29°46' W 095°06'0 0.1
2017-Dec-09 16:25N 29°46' W 095°06'1 2.1
2017-Dec-09 16:00N 29°46' W 095°05'1 1.3
2017-Dec-09 15:24N 29°46' W 095°06'0 0.1
2017-Dec-09 14:59N 29°46' W 095°06'0 0.0
2017-Dec-09 14:29N 29°46' W 095°06'0 0.0
2017-Dec-09 14:00N 29°46' W 095°06'0 0.0
2017-Dec-09 13:30N 29°46' W 095°06'0 0.6
2017-Dec-09 12:59N 29°46' W 095°07'1 0.9
2017-Dec-09 12:24N 29°46' W 095°07'0 0.0
2017-Dec-09 12:00N 29°46' W 095°07'0 0.0
2017-Dec-09 11:30N 29°46' W 095°07'0 0.0
2017-Dec-09 10:58N 29°46' W 095°07'0 0.0
2017-Dec-09 10:31N 29°46' W 095°07'0 0.0
2017-Dec-09 10:00N 29°46' W 095°07'0 0.0
2017-Dec-09 09:27N 29°46' W 095°07'0 0.0
2017-Dec-09 08:59N 29°46' W 095°07'0 0.0
2017-Dec-09 08:28N 29°46' W 095°07'0 0.0
2017-Dec-09 08:00N 29°46' W 095°07'0 0.0
2017-Dec-09 07:30N 29°46' W 095°07'0 0.0
2017-Dec-09 07:00N 29°46' W 095°07'0 0.0
2017-Dec-09 06:31N 29°46' W 095°07'0 0.0
2017-Dec-09 05:52N 29°46' W 095°07'0 0.0
2017-Dec-09 05:30N 29°46' W 095°07'0 0.0
2017-Dec-09 04:54N 29°46' W 095°07'1 0.1
2017-Dec-08 19:36N 29°45' W 095°06'1 1.9
2017-Dec-08 19:18N 29°46' W 095°05'1 4.7
2017-Dec-08 18:59N 29°45' W 095°04'3 5.1
2017-Dec-08 18:29N 29°44' W 095°02'2 4.0
2017-Dec-08 18:00N 29°42' W 095°00'2 4.8
2017-Dec-08 17:30N 29°40' W 094°59'3 5.4
2017-Dec-08 17:00N 29°38' W 094°58'2 4.1
2017-Dec-08 16:30N 29°37' W 094°60'2 3.1
2017-Dec-08 16:00N 29°37' W 095°01'0 0.0
2017-Dec-08 15:30N 29°37' W 095°01'0 0.0
2017-Dec-08 15:00N 29°37' W 095°01'0 0.4
2017-Dec-08 14:30N 29°37' W 095°01'0 0.0
2017-Dec-08 14:00N 29°37' W 095°01'0 0.0
2017-Dec-08 13:30N 29°37' W 095°01'0 0.0
2017-Dec-08 13:00N 29°37' W 095°01'0 0.0
2017-Dec-08 12:30N 29°37' W 095°01'0 0.0
2017-Dec-08 12:00N 29°37' W 095°01'0 0.0
2017-Dec-08 11:30N 29°37' W 095°01'0 0.0
2017-Dec-08 11:00N 29°37' W 095°01'0 0.0
2017-Dec-08 10:30N 29°37' W 095°01'0 0.0
2017-Dec-08 10:00N 29°37' W 095°01'0 0.0
2017-Dec-08 09:30N 29°37' W 095°01'0 0.0
2017-Dec-08 09:00N 29°37' W 095°01'0 0.0
2017-Dec-08 08:30N 29°37' W 095°01'0 0.0
2017-Dec-08 08:00N 29°37' W 095°01'0 0.0
2017-Dec-08 07:30N 29°37' W 095°01'0 0.0
2017-Dec-08 07:00N 29°37' W 095°01'0 0.0
2017-Dec-08 06:30N 29°37' W 095°01'0 0.0
2017-Dec-08 06:00N 29°37' W 095°01'0 0.0
2017-Dec-08 05:30N 29°37' W 095°01'0 0.0
2017-Dec-08 05:00N 29°37' W 095°01'  

Dump ship's entire track history